Time;durP1;ratioP1;P1;durP2;ratioP2;P2;SDS_P1;SDS_P2;PMS_P1;PMS_P2;Temp;Humidity;BMP_temperature;BMP_pressure;BME280_temperature;BME280_humidity;BME280_pressure;Samples;Min_cycle;Max_cycle;Signal;HPM_P1;HPM_P2
2021/10/10 00:00:13;;;;;;;23.10;11.52;;;;;;;7.60;90.81;98733.25;5053120;28;20032;-79
2021/10/10 00:02:39;;;;;;;24.30;9.75;;;;;;;7.62;90.92;98735.69;5053130;28;20017;-78
2021/10/10 00:05:05;;;;;;;23.10;9.65;;;;;;;7.64;87.50;98734.38;5053173;28;20039;-79
2021/10/10 00:07:30;;;;;;;19.48;9.73;;;;;;;7.70;86.91;98732.53;5053050;28;20028;-79
2021/10/10 00:09:56;;;;;;;24.30;9.75;;;;;;;7.64;86.38;98728.13;5052972;28;20343;-78
2021/10/10 00:12:21;;;;;;;21.83;9.70;;;;;;;7.60;85.86;98735.16;5053033;28;20036;-80
2021/10/10 00:14:47;;;;;;;22.20;9.48;;;;;;;7.61;84.60;98732.19;5053221;28;20032;-79
2021/10/10 00:17:12;;;;;;;19.08;9.40;;;;;;;7.54;84.18;98737.84;5053020;28;20029;-79
2021/10/10 00:19:38;;;;;;;23.38;9.80;;;;;;;7.59;87.51;98728.88;5046973;28;20029;-78
2021/10/10 00:22:03;;;;;;;20.10;10.43;;;;;;;7.52;87.57;98726.34;5042043;28;20477;-77
2021/10/10 00:24:28;;;;;;;20.27;10.18;;;;;;;7.46;86.54;98721.94;5046035;28;20344;-78
2021/10/10 00:26:54;;;;;;;22.75;10.02;;;;;;;7.67;87.06;98717.53;5052611;28;20116;-77
2021/10/10 00:29:19;;;;;;;20.40;10.15;;;;;;;7.63;87.24;98710.97;5052697;28;20470;-77
2021/10/10 00:31:45;;;;;;;18.05;9.95;;;;;;;7.61;86.50;98713.13;5052639;28;20363;-77
2021/10/10 00:34:11;;;;;;;28.48;9.95;;;;;;;7.63;86.19;98704.69;5084749;28;20032;-78
2021/10/10 00:36:36;;;;;;;20.05;8.77;;;;;;;7.61;85.44;98710.41;5052540;28;20676;-78
2021/10/10 00:39:02;;;;;;;18.83;8.80;;;;;;;7.42;83.87;98699.03;5052512;28;20108;-79
2021/10/10 00:41:27;;;;;;;16.05;8.43;;;;;;;7.33;84.22;98695.13;5051137;28;20566;-78
2021/10/10 00:43:53;;;;;;;16.17;8.50;;;;;;;7.27;84.67;98695.31;5052584;28;20104;-77
2021/10/10 00:46:18;;;;;;;16.20;8.05;;;;;;;7.20;84.33;98687.38;5052321;28;20025;-78
2021/10/10 00:48:44;;;;;;;17.70;8.02;;;;;;;7.16;84.91;98682.69;5052397;28;20087;-77
2021/10/10 00:51:09;;;;;;;19.88;9.20;;;;;;;7.13;84.66;98684.03;5052353;28;20083;-78
2021/10/10 00:53:37;;;;;;;19.70;7.93;;;;;;;7.07;86.18;98679.63;5051730;28;20043;-77
2021/10/10 00:56:03;;;;;;;18.67;8.32;;;;;;;6.92;85.87;98668.56;5044220;28;20474;-79
2021/10/10 00:58:30;;;;;;;26.08;8.80;;;;;;;6.91;86.23;98677.78;5042690;28;20037;-78
2021/10/10 01:00:56;;;;;;;18.55;8.05;;;;;;;6.89;86.63;98674.53;5046228;28;20021;-77
2021/10/10 01:03:23;;;;;;;19.40;8.10;;;;;;;6.90;87.36;98671.53;5029444;28;20044;-77
2021/10/10 01:05:49;;;;;;;18.88;7.85;;;;;;;6.91;85.82;98675.06;5018039;28;20448;-78
2021/10/10 01:08:15;;;;;;;17.92;8.13;;;;;;;6.88;86.59;98675.59;5031751;28;20376;-79
2021/10/10 01:10:43;;;;;;;14.48;8.27;;;;;;;6.78;87.56;98673.56;5031173;28;20108;-79
2021/10/10 01:13:09;;;;;;;23.88;7.93;;;;;;;6.77;87.66;98668.38;5032813;28;20406;-78
2021/10/10 01:15:35;;;;;;;19.75;8.63;;;;;;;6.56;88.98;98653.69;5032671;28;20025;-78
2021/10/10 01:18:00;;;;;;;19.05;8.15;;;;;;;6.62;89.38;98660.03;5032212;28;20029;-78
2021/10/10 01:20:27;;;;;;;20.40;8.82;;;;;;;6.54;90.52;98657.75;5032112;28;20403;-78
2021/10/10 01:22:53;;;;;;;21.70;8.88;;;;;;;6.46;91.38;98657.09;5032673;28;20060;-80
2021/10/10 01:25:19;;;;;;;17.60;8.07;;;;;;;6.44;91.21;98656.56;5032794;28;20029;-79
2021/10/10 01:27:44;;;;;;;15.65;7.90;;;;;;;6.54;90.85;98653.16;5041290;28;20084;-82
2021/10/10 01:30:10;;;;;;;18.15;8.63;;;;;;;6.46;90.27;98650.84;5043452;28;20025;-82
2021/10/10 01:32:36;;;;;;;18.13;8.00;;;;;;;6.43;91.08;98656.78;5042336;28;20040;-83
2021/10/10 01:35:02;;;;;;;15.52;8.63;;;;;;;6.39;91.86;98647.50;5038425;28;20033;-81
2021/10/10 01:37:27;;;;;;;20.30;8.07;;;;;;;6.39;91.26;98651.03;5037726;28;20029;-83
2021/10/10 01:39:53;;;;;;;15.90;8.23;;;;;;;6.38;90.92;98640.44;5034162;28;20036;-80
2021/10/10 01:42:18;;;;;;;18.60;9.63;;;;;;;6.49;89.96;98644.91;5032701;28;20083;-78
2021/10/10 01:44:43;;;;;;;19.65;9.68;;;;;;;6.55;89.50;98641.19;5032890;28;20075;-80
2021/10/10 01:47:09;;;;;;;20.77;8.88;;;;;;;6.51;90.55;98641.97;5032199;28;20467;-79
2021/10/10 01:49:39;;;;;;;17.13;8.48;;;;;;;6.50;90.53;98640.31;5031807;28;20041;-79
2021/10/10 01:52:05;;;;;;;22.40;8.85;;;;;;;6.54;90.13;98636.84;5034510;28;20047;-79
2021/10/10 01:54:30;;;;;;;17.15;8.38;;;;;;;6.60;89.41;98641.25;5042502;28;20582;-78
2021/10/10 01:56:56;;;;;;;18.92;8.48;;;;;;;6.61;89.37;98642.09;5045780;28;20115;-78
2021/10/10 01:59:21;;;;;;;14.43;8.02;;;;;;;6.57;90.74;98638.22;5049929;28;20482;-79
2021/10/10 02:01:47;;;;;;;16.50;8.27;;;;;;;6.61;90.81;98628.50;5051333;28;20036;-79
2021/10/10 02:04:12;;;;;;;17.55;8.35;;;;;;;6.61;90.79;98629.28;5051301;28;20029;-78
2021/10/10 02:06:37;;;;;;;17.52;7.75;;;;;;;6.60;90.58;98629.56;5049460;28;20025;-78
2021/10/10 02:09:03;;;;;;;18.33;8.50;;;;;;;6.57;91.31;98621.91;5040701;28;20025;-78
2021/10/10 02:11:28;;;;;;;16.38;8.05;;;;;;;6.65;91.26;98632.34;5039692;28;20479;-79
2021/10/10 02:13:54;;;;;;;22.02;8.20;;;;;;;6.70;90.09;98625.09;5011973;28;20022;-78
2021/10/10 02:16:19;;;;;;;22.30;8.77;;;;;;;6.64;90.24;98631.50;5010780;28;20030;-79
2021/10/10 02:18:45;;;;;;;17.67;7.47;;;;;;;6.66;90.61;98634.00;5009931;28;20032;-79
2021/10/10 02:21:10;;;;;;;22.50;8.20;;;;;;;6.72;88.80;98622.94;5025687;28;20048;-78
2021/10/10 02:23:36;;;;;;;17.52;7.72;;;;;;;6.77;87.97;98622.16;5049195;28;20025;-78
2021/10/10 02:26:01;;;;;;;19.30;7.88;;;;;;;6.74;87.97;98609.88;5046130;28;20418;-79
2021/10/10 02:28:27;;;;;;;17.55;7.95;;;;;;;6.68;87.72;98621.78;5050493;28;20029;-78
2021/10/10 02:30:52;;;;;;;15.10;7.78;;;;;;;6.66;86.39;98621.22;5049237;28;20413;-79
2021/10/10 02:33:18;;;;;;;16.92;7.90;;;;;;;6.76;87.03;98620.53;5050540;28;20040;-78
2021/10/10 02:35:44;;;;;;;16.73;8.48;;;;;;;6.67;88.63;98620.13;5050251;28;20027;-77
2021/10/10 02:38:10;;;;;;;18.23;7.80;;;;;;;6.67;88.90;98606.53;5050441;28;20056;-78
2021/10/10 02:40:36;;;;;;;16.02;8.05;;;;;;;6.70;88.16;98602.50;5050405;28;20136;-79
2021/10/10 02:43:01;;;;;;;20.15;8.30;;;;;;;6.75;88.41;98616.16;5047287;28;20088;-79
2021/10/10 02:45:27;;;;;;;13.45;7.65;;;;;;;6.72;88.94;98616.66;5041651;28;20060;-78
2021/10/10 02:47:54;;;;;;;12.85;8.15;;;;;;;6.60;88.22;98597.78;5041687;28;20021;-77
2021/10/10 02:50:19;;;;;;;15.13;8.48;;;;;;;6.57;87.53;98613.75;5049943;28;20048;-78
2021/10/10 02:52:44;;;;;;;21.40;10.57;;;;;;;6.56;86.64;98610.22;5050472;28;20021;-78
2021/10/10 02:55:10;;;;;;;19.55;9.15;;;;;;;6.57;86.56;98611.06;5050101;28;20047;-79
2021/10/10 02:57:36;;;;;;;18.77;9.13;;;;;;;6.53;87.00;98607.19;5050148;28;20412;-78
2021/10/10 03:00:04;;;;;;;19.25;9.52;;;;;;;6.58;87.52;98597.19;5051274;28;20033;-80
2021/10/10 03:02:29;;;;;;;18.90;9.38;;;;;;;6.56;89.08;98593.91;5052275;28;20029;-82
2021/10/10 03:04:55;;;;;;;21.77;9.32;;;;;;;6.55;89.74;98592.25;5052280;28;20511;-80
2021/10/10 03:07:20;;;;;;;20.95;9.82;;;;;;;6.61;90.20;98595.88;5052351;28;20047;-81
2021/10/10 03:09:45;;;;;;;17.13;9.10;;;;;;;6.59;90.41;98593.41;5052161;28;20426;-81
2021/10/10 03:12:11;;;;;;;22.90;9.82;;;;;;;6.60;90.45;98591.50;5051238;28;20510;-81
2021/10/10 03:14:36;;;;;;;18.63;9.95;;;;;;;6.61;90.78;98582.31;5051201;28;20086;-80
2021/10/10 03:17:02;;;;;;;28.83;10.30;;;;;;;6.66;90.25;98591.31;5050889;28;20096;-79
2021/10/10 03:19:27;;;;;;;19.35;10.60;;;;;;;6.72;90.40;98584.88;5044776;28;20691;-79
2021/10/10 03:21:53;;;;;;;17.70;10.60;;;;;;;6.75;90.22;98583.53;5040435;28;20120;-78
2021/10/10 03:24:18;;;;;;;18.83;9.23;;;;;;;6.82;90.20;98584.16;5037984;28;20498;-79
2021/10/10 03:26:43;;;;;;;20.75;9.90;;;;;;;6.84;90.42;98582.00;5050001;28;20120;-78
2021/10/10 03:29:09;;;;;;;16.65;9.32;;;;;;;6.84;88.83;98573.84;5054090;28;20397;-78
2021/10/10 03:31:34;;;;;;;21.05;9.18;;;;;;;6.83;86.60;98562.13;5054336;28;20466;-78
2021/10/10 03:34:00;;;;;;;17.15;9.10;;;;;;;6.99;86.95;98574.81;5052450;28;20079;-78
2021/10/10 03:36:25;;;;;;;17.90;9.32;;;;;;;7.04;88.46;98584.94;5054464;28;20033;-78
2021/10/10 03:38:50;;;;;;;16.80;9.23;;;;;;;7.06;85.58;98577.34;5054701;28;20033;-79
2021/10/10 03:41:16;;;;;;;18.45;10.30;;;;;;;7.10;83.64;98581.19;5053553;28;20025;-78
2021/10/10 03:43:41;;;;;;;18.88;9.18;;;;;;;7.20;86.18;98575.84;5054301;28;20098;-77
2021/10/10 03:46:07;;;;;;;16.30;8.73;;;;;;;7.36;85.70;98582.25;5054281;28;20398;-79
2021/10/10 03:48:32;;;;;;;21.92;9.35;;;;;;;7.41;85.63;98574.94;5052677;28;20041;-78
2021/10/10 03:50:58;;;;;;;16.30;8.77;;;;;;;7.52;84.32;98573.09;5053820;28;20040;-79
2021/10/10 03:53:32;;;;;;;14.40;7.85;;;;;;;7.48;83.93;98572.81;5053546;28;20550;-78
2021/10/10 03:55:58;;;;;;;20.10;9.20;;;;;;;7.47;85.01;98570.34;5046302;28;20474;-78
2021/10/10 03:58:23;;;;;;;20.48;8.35;;;;;;;7.44;87.18;98565.44;5041409;28;20079;-82
2021/10/10 04:00:49;;;;;;;18.30;8.73;;;;;;;7.42;87.64;98567.59;5039373;28;21463;-79
2021/10/10 04:03:16;;;;;;;16.25;9.10;;;;;;;7.41;89.75;98561.34;5031340;28;20387;-79
2021/10/10 04:05:44;;;;;;;22.75;9.38;;;;;;;7.24;91.84;98552.47;5012529;28;20042;-79
2021/10/10 04:08:10;;;;;;;16.48;9.20;;;;;;;7.16;92.82;98550.22;5013644;28;20026;-80
2021/10/10 04:10:35;;;;;;;17.48;8.23;;;;;;;7.11;94.22;98546.66;5012998;28;20037;-80
2021/10/10 04:13:01;;;;;;;15.10;8.20;;;;;;;7.12;95.01;98554.53;5021324;28;20025;-81
2021/10/10 04:15:26;;;;;;;15.95;8.68;;;;;;;7.14;95.21;98554.28;5022552;28;20505;-82
2021/10/10 04:17:52;;;;;;;18.00;8.77;;;;;;;7.24;95.79;98546.19;5020849;28;20033;-80
2021/10/10 04:20:18;;;;;;;18.73;9.68;;;;;;;7.25;95.69;98550.56;5014089;28;20088;-80
2021/10/10 04:22:44;;;;;;;15.75;8.30;;;;;;;7.32;94.90;98549.28;5012741;28;21507;-78
2021/10/10 04:25:11;;;;;;;21.40;8.93;;;;;;;7.30;94.83;98548.72;5012998;28;20487;-79
2021/10/10 04:27:38;;;;;;;15.68;7.40;;;;;;;7.26;92.56;98552.22;5012255;28;20034;-81
2021/10/10 04:30:05;;;;;;;17.90;7.53;;;;;;;7.28;84.27;98544.63;5012944;28;20641;-80
2021/10/10 04:32:31;;;;;;;16.02;6.82;;;;;;;7.38;82.22;98548.25;5037545;28;20059;-81
2021/10/10 04:34:57;;;;;;;16.85;7.70;;;;;;;7.46;79.50;98542.31;5038369;28;20025;-80
2021/10/10 04:37:22;;;;;;;17.45;6.85;;;;;;;7.59;78.00;98545.66;5036927;28;20036;-77
2021/10/10 04:39:48;;;;;;;17.42;6.72;;;;;;;7.65;76.60;98541.88;5031969;28;20120;-79
2021/10/10 04:42:13;;;;;;;19.35;7.20;;;;;;;7.66;76.70;98554.44;5033648;28;20029;-81
2021/10/10 04:44:39;;;;;;;16.42;7.38;;;;;;;7.72;74.92;98545.22;5031492;28;20121;-83
2021/10/10 04:47:05;;;;;;;18.27;7.22;;;;;;;7.75;74.79;98541.97;5032691;28;20029;-79
2021/10/10 04:49:32;;;;;;;17.20;7.70;;;;;;;7.72;75.29;98539.78;5032129;28;20037;-77
2021/10/10 04:51:57;;;;;;;18.75;7.43;;;;;;;7.76;74.83;98547.16;5031769;28;20033;-79
2021/10/10 04:54:23;;;;;;;19.85;7.57;;;;;;;7.75;74.67;98537.34;5032068;28;20026;-83
2021/10/10 04:56:48;;;;;;;17.80;7.25;;;;;;;7.72;74.98;98550.66;5031167;28;20032;-79
2021/10/10 04:59:13;;;;;;;18.25;7.95;;;;;;;7.74;74.36;98543.03;5033142;28;20557;-79
2021/10/10 05:01:39;;;;;;;22.27;6.60;;;;;;;7.79;74.62;98545.81;5033637;28;20028;-82
2021/10/10 05:04:04;;;;;;;17.77;7.60;;;;;;;7.75;74.31;98558.31;5032845;28;20029;-80
2021/10/10 05:06:29;;;;;;;16.15;6.40;;;;;;;7.69;73.75;98545.75;5033594;28;20026;-83
2021/10/10 05:08:55;;;;;;;17.08;6.80;;;;;;;7.71;74.77;98551.72;5039618;28;20029;-79
2021/10/10 05:11:20;;;;;;;15.27;6.85;;;;;;;7.69;74.04;98549.28;5040994;28;20032;-78
2021/10/10 05:13:46;;;;;;;14.20;6.95;;;;;;;7.67;74.35;98556.09;5053161;28;20403;-86
2021/10/10 05:16:11;;;;;;;18.80;7.20;;;;;;;7.69;73.64;98551.19;5055994;28;20033;-83
2021/10/10 05:18:36;;;;;;;14.35;6.55;;;;;;;7.74;73.24;98560.19;5053298;28;20053;-79
2021/10/10 05:21:02;;;;;;;12.35;6.38;;;;;;;7.74;73.46;98543.88;5003204;28;1482042;-84
2021/10/10 05:23:28;;;;;;;18.13;6.70;;;;;;;7.72;72.96;98556.09;5054232;28;20037;-81
2021/10/10 05:25:53;;;;;;;19.05;6.63;;;;;;;7.73;73.29;98558.59;5056973;28;20075;-80
2021/10/10 05:28:19;;;;;;;12.55;6.32;;;;;;;7.75;72.55;98550.13;5053507;28;20025;-79
2021/10/10 05:30:44;;;;;;;16.75;7.22;;;;;;;7.76;72.97;98552.59;5050391;28;20091;-78
2021/10/10 05:33:10;;;;;;;13.00;6.72;;;;;;;7.73;72.32;98549.59;5053657;28;20063;-84
2021/10/10 05:35:36;;;;;;;18.30;7.13;;;;;;;7.78;73.07;98557.78;5053095;28;20028;-77
2021/10/10 05:38:02;;;;;;;17.75;8.13;;;;;;;7.74;72.20;98557.47;5050863;28;20053;-79
2021/10/10 05:40:27;;;;;;;13.55;6.63;;;;;;;7.71;72.26;98554.44;5084604;28;20059;-80
2021/10/10 05:42:53;;;;;;;14.93;6.25;;;;;;;7.76;72.19;98558.06;5049207;28;20025;-80
2021/10/10 05:45:19;;;;;;;16.60;6.63;;;;;;;7.77;72.13;98564.31;5042671;28;20060;-77
2021/10/10 05:47:44;;;;;;;22.58;7.25;;;;;;;7.79;71.81;98557.53;5042656;28;20028;-80
2021/10/10 05:50:09;;;;;;;13.60;6.88;;;;;;;7.78;71.75;98557.78;5049949;28;20025;-77
2021/10/10 05:52:35;;;;;;;15.88;6.57;;;;;;;7.76;71.77;98565.41;5051796;28;20025;-82
2021/10/10 05:55:01;;;;;;;16.33;6.85;;;;;;;7.81;71.57;98560.81;5050960;28;20055;-79
2021/10/10 05:57:35;;;;;;;13.70;6.85;;;;;;;7.85;71.29;98566.53;5051852;28;20406;-78
2021/10/10 06:00:06;;;;;;;17.83;8.23;;;;;;;7.91;71.50;98560.03;5052337;28;20056;-80
2021/10/10 06:02:32;;;;;;;13.95;5.88;;;;;;;7.86;70.83;98568.19;5050282;28;20080;-80
2021/10/10 06:04:57;;;;;;;14.38;6.65;;;;;;;7.83;70.99;98568.72;5032738;28;20495;-78
2021/10/10 06:07:22;;;;;;;15.10;6.28;;;;;;;7.87;71.60;98572.53;5032081;28;20041;-75
2021/10/10 06:09:48;;;;;;;14.38;6.68;;;;;;;7.86;70.77;98570.91;5032595;28;20037;-81
2021/10/10 06:12:14;;;;;;;17.23;6.82;;;;;;;7.84;71.04;98568.44;5032367;28;20033;-79
2021/10/10 06:14:40;;;;;;;16.95;6.30;;;;;;;7.89;71.13;98573.13;5032863;28;20033;-80
2021/10/10 06:17:07;;;;;;;20.80;7.63;;;;;;;7.87;71.54;98576.09;5031937;28;20029;-79
2021/10/10 06:19:33;;;;;;;78.63;37.03;;;;;;;7.90;71.62;98572.00;5037795;28;20055;-80
2021/10/10 06:21:58;;;;;;;30.02;17.30;;;;;;;7.86;71.15;98581.81;5038126;28;20398;-79
2021/10/10 06:24:24;;;;;;;13.48;7.45;;;;;;;7.82;71.46;98567.91;5036038;28;20025;-79
2021/10/10 06:26:49;;;;;;;18.15;7.05;;;;;;;7.94;71.46;98578.59;5033737;28;20026;-78
2021/10/10 06:29:14;;;;;;;15.20;8.02;;;;;;;7.96;71.30;98576.41;5034040;28;20039;-80
2021/10/10 06:31:40;;;;;;;21.83;8.32;;;;;;;7.93;71.34;98574.22;5039256;28;20084;-78
2021/10/10 06:34:06;;;;;;;26.52;10.55;;;;;;;7.88;71.79;98566.84;5034946;28;20064;-76
2021/10/10 06:36:33;;;;;;;42.88;20.48;;;;;;;7.88;71.69;98558.69;5034046;28;20029;-76
2021/10/10 06:38:59;;;;;;;13.48;5.97;;;;;;;7.88;71.90;98555.13;5030368;28;20087;-77
2021/10/10 06:41:24;;;;;;;12.75;6.78;;;;;;;7.92;71.68;98561.69;5031037;28;20029;-76
2021/10/10 06:43:50;;;;;;;16.88;8.07;;;;;;;7.95;71.69;98548.38;5031555;28;20548;-77
2021/10/10 06:46:15;;;;;;;15.70;7.05;;;;;;;7.93;71.90;98563.31;5031018;28;20028;-76
2021/10/10 06:48:41;;;;;;;24.50;7.43;;;;;;;7.88;71.30;98549.69;5031365;28;20032;-76
2021/10/10 06:51:06;;;;;;;17.05;6.90;;;;;;;7.93;71.54;98546.97;5034274;28;20056;-80
2021/10/10 06:53:32;;;;;;;23.52;7.50;;;;;;;7.97;71.49;98565.25;5042973;28;20029;-82
2021/10/10 06:55:59;;;;;;;14.57;7.03;;;;;;;8.01;71.72;98557.38;5044465;28;20112;-81
2021/10/10 06:58:25;;;;;;;19.40;6.55;;;;;;;7.97;71.14;98553.53;5047824;28;20029;-78
2021/10/10 07:00:50;;;;;;;21.77;6.07;;;;;;;8.04;71.38;98560.41;5050655;28;20029;-81
2021/10/10 07:03:15;;;;;;;12.50;6.43;;;;;;;8.03;71.28;98574.28;5050091;28;20037;-79
2021/10/10 07:05:41;;;;;;;14.55;6.60;;;;;;;8.03;71.48;98568.84;5050066;28;20021;-79
2021/10/10 07:08:06;;;;;;;15.75;6.65;;;;;;;8.06;70.94;98558.22;5049665;28;20518;-79
2021/10/10 07:10:31;;;;;;;11.07;5.88;;;;;;;8.08;71.02;98566.16;5048683;28;20035;-79
2021/10/10 07:12:57;;;;;;;10.82;5.95;;;;;;;8.06;71.10;98574.56;5049844;28;20467;-77
2021/10/10 07:15:22;;;;;;;12.00;6.70;;;;;;;8.09;70.69;98571.31;5050113;28;20061;-81
2021/10/10 07:17:57;;;;;;;12.65;5.63;;;;;;;8.18;70.42;98582.53;5048740;28;20041;-80
2021/10/10 07:20:29;;;;;;;17.45;6.47;;;;;;;8.19;70.07;98575.19;5049699;28;20394;-81
2021/10/10 07:23:10;;;;;;;11.75;6.40;;;;;;;8.20;68.95;98585.84;5049792;28;20090;-79
2021/10/10 07:25:35;;;;;;;11.30;6.18;;;;;;;8.25;69.20;98585.84;5050292;28;20128;-79
2021/10/10 07:28:01;;;;;;;17.88;5.57;;;;;;;8.24;68.95;98586.94;5050341;28;20522;-78
2021/10/10 07:30:26;;;;;;;17.70;6.35;;;;;;;8.25;69.20;98587.75;5050422;28;20033;-78
2021/10/10 07:32:52;;;;;;;13.25;6.43;;;;;;;8.27;69.06;98580.16;5040125;28;20029;-79
2021/10/10 07:35:17;;;;;;;12.82;6.68;;;;;;;8.36;69.20;98584.88;5038252;28;20091;-78
2021/10/10 07:37:42;;;;;;;9.50;5.40;;;;;;;8.34;69.05;98580.75;5049722;28;20063;-78
2021/10/10 07:40:09;;;;;;;12.15;5.90;;;;;;;8.36;69.05;98579.41;5050136;28;20037;-78
2021/10/10 07:42:34;;;;;;;15.38;6.32;;;;;;;8.40;68.09;98576.94;5048557;28;20117;-77
2021/10/10 07:45:08;;;;;;;15.60;6.45;;;;;;;8.48;68.00;98581.91;5050647;28;20111;-77
2021/10/10 07:47:46;;;;;;;14.23;6.22;;;;;;;8.51;68.19;98586.81;5047535;28;20064;-83
2021/10/10 07:50:13;;;;;;;11.63;6.05;;;;;;;8.50;68.06;98568.81;5036104;28;20055;-82
2021/10/10 07:52:39;;;;;;;15.35;6.70;;;;;;;8.55;67.46;98586.00;5038055;28;20021;-79
2021/10/10 07:55:05;;;;;;;17.42;6.60;;;;;;;8.47;67.75;98581.09;5038185;28;20103;-80
2021/10/10 07:57:34;;;;;;;14.52;6.68;;;;;;;8.51;67.79;98571.28;5040646;28;20421;-80
2021/10/10 08:00:00;;;;;;;12.48;5.35;;;;;;;8.55;67.91;98575.09;5040825;28;20041;-78
2021/10/10 08:02:27;;;;;;;15.57;6.93;;;;;;;8.51;68.37;98579.47;5035822;28;20041;-78
2021/10/10 08:04:52;;;;;;;16.13;6.40;;;;;;;8.55;67.65;98583.28;5025678;28;20113;-78
2021/10/10 08:07:18;;;;;;;23.48;7.55;;;;;;;8.48;67.74;98562.81;5033720;28;20028;-77
2021/10/10 08:09:43;;;;;;;16.70;6.88;;;;;;;8.64;67.87;98580.06;5039365;28;20059;-76
2021/10/10 08:12:09;;;;;;;16.42;6.40;;;;;;;8.68;67.32;98589.34;5037608;28;20020;-80
2021/10/10 08:14:38;;;;;;;14.38;6.50;;;;;;;8.60;67.42;98579.78;5041767;28;20433;-76
2021/10/10 08:17:03;;;;;;;19.60;6.53;;;;;;;8.68;67.41;98587.44;5043905;28;20053;-78
2021/10/10 08:19:29;;;;;;;16.77;6.28;;;;;;;8.69;67.82;98585.53;5044487;28;20049;-77
2021/10/10 08:21:54;;;;;;;19.73;7.35;;;;;;;8.76;67.92;98588.81;5043823;28;20559;-77
2021/10/10 08:24:22;;;;;;;17.48;8.15;;;;;;;8.66;67.97;98577.88;5046217;28;20016;-78
2021/10/10 08:26:47;;;;;;;19.52;8.95;;;;;;;8.78;68.16;98583.91;5048046;28;20025;-75
2021/10/10 08:29:17;;;;;;;76.80;34.60;;;;;;;8.98;68.85;98592.16;5056137;28;20034;-86
2021/10/10 08:31:43;;;;;;;23.27;10.80;;;;;;;8.96;66.67;98588.88;5050774;28;20036;-79
2021/10/10 08:34:08;;;;;;;11.98;6.38;;;;;;;8.92;66.53;98588.63;5044288;28;20040;-77
2021/10/10 08:36:33;;;;;;;15.88;6.18;;;;;;;8.88;66.90;98584.78;5048428;28;20025;-80
2021/10/10 08:38:59;;;;;;;22.58;8.57;;;;;;;9.00;67.35;98595.44;5046224;28;20471;-81
2021/10/10 08:41:31;;;;;;;12.50;5.93;;;;;;;8.94;67.34;98593.78;5043739;28;20016;-78
2021/10/10 08:43:57;;;;;;;10.73;5.93;;;;;;;8.82;67.57;98604.94;5042545;28;20033;-76
2021/10/10 08:46:26;;;;;;;12.05;5.85;;;;;;;8.90;68.00;98604.41;5043937;28;20390;-74
2021/10/10 08:48:52;;;;;;;7.88;5.10;;;;;;;9.01;67.91;98597.91;5040290;28;20560;-76
2021/10/10 08:51:19;;;;;;;13.57;6.68;;;;;;;9.04;67.48;98602.00;5042289;28;20478;-77
2021/10/10 08:53:45;;;;;;;13.15;5.75;;;;;;;9.03;67.52;98597.63;5039244;28;20122;-78
2021/10/10 08:56:11;;;;;;;9.52;4.63;;;;;;;9.07;67.42;98596.00;5042080;28;20044;-79
2021/10/10 08:58:41;;;;;;;12.85;5.47;;;;;;;9.26;67.30;98599.88;5049276;28;20025;-77
2021/10/10 09:01:15;;;;;;;10.57;5.93;;;;;;;9.20;67.06;98598.22;5034125;28;20024;-77
2021/10/10 09:03:46;;;;;;;9.43;5.20;;;;;;;9.15;66.86;98592.72;5046316;28;20120;-79
2021/10/10 09:06:12;;;;;;;8.93;5.50;;;;;;;9.20;67.31;98600.94;5034750;28;20025;-79
2021/10/10 09:08:37;;;;;;;9.43;4.70;;;;;;;9.13;67.32;98589.47;5030431;28;20021;-76
2021/10/10 09:11:02;;;;;;;14.88;4.60;;;;;;;9.40;66.62;98591.94;5033197;28;20163;-79
2021/10/10 09:13:38;;;;;;;13.20;4.38;;;;;;;9.42;66.67;98595.25;5035584;28;20021;-79
2021/10/10 09:16:06;;;;;;;11.48;4.28;;;;;;;9.24;66.25;98582.91;5040250;28;20022;-78
2021/10/10 09:18:33;;;;;;;8.98;4.57;;;;;;;9.34;66.55;98602.03;5048140;28;20025;-80
2021/10/10 09:21:16;;;;;;;9.65;5.18;;;;;;;9.26;66.68;98597.13;5052406;28;20048;-79
2021/10/10 09:23:49;;;;;;;11.68;6.28;;;;;;;9.29;66.76;98599.31;5038795;28;20085;-80
2021/10/10 09:26:15;;;;;;;15.48;5.60;;;;;;;9.21;66.89;98591.66;5054472;28;20032;-82
2021/10/10 09:28:41;;;;;;;8.18;4.25;;;;;;;9.13;66.64;98573.09;5041902;28;20021;-78
2021/10/10 09:31:08;;;;;;;10.23;4.22;;;;;;;9.19;66.88;98580.19;5034242;28;20025;-82
2021/10/10 09:33:47;;;;;;;10.13;4.78;;;;;;;9.17;67.18;98590.56;5036621;28;20033;-82
2021/10/10 09:36:25;;;;;;;9.25;3.55;;;;;;;9.23;67.10;98573.13;5040202;28;20029;-81
2021/10/10 09:39:07;;;;;;;9.07;4.00;;;;;;;9.27;66.60;98579.66;5019814;28;20037;-76
2021/10/10 09:41:35;;;;;;;6.40;3.40;;;;;;;9.23;67.22;98583.19;5030952;28;20104;-76
2021/10/10 09:44:46;;;;;;;7.47;3.67;;;;;;;9.13;67.15;98584.00;5031203;28;20021;-79
2021/10/10 09:47:01;;;;;;;6.45;3.28;;;;;;;9.12;67.27;98593.28;5009870;28;20121;-78
2021/10/10 09:49:29;;;;;;;7.50;3.53;;;;;;;9.09;67.42;98602.00;5037646;28;20043;-77
2021/10/10 09:52:15;;;;;;;7.18;3.50;;;;;;;9.03;67.68;98589.44;5045250;28;20021;-76
2021/10/10 09:54:46;;;;;;;7.25;3.53;;;;;;;9.14;68.02;98585.66;5039645;28;20119;-79
2021/10/10 09:57:12;;;;;;;8.52;3.63;;;;;;;9.24;67.73;98579.41;5049260;28;20424;-78
2021/10/10 09:59:38;;;;;;;7.53;3.58;;;;;;;9.36;67.23;98572.59;5042312;28;20037;-78
2021/10/10 10:02:04;;;;;;;6.63;3.50;;;;;;;9.47;66.65;98576.94;5029454;28;20367;-78
2021/10/10 10:04:44;;;;;;;9.25;4.30;;;;;;;9.41;66.17;98569.84;5035249;28;20028;-76
2021/10/10 10:07:17;;;;;;;7.30;3.42;;;;;;;9.48;66.33;98572.31;5036595;28;20026;-78
2021/10/10 10:09:49;;;;;;;6.50;3.05;;;;;;;9.36;66.31;98572.59;5036936;28;20025;-75
2021/10/10 10:12:16;;;;;;;9.15;4.32;;;;;;;9.44;65.84;98563.00;5040854;28;20505;-79
2021/10/10 10:14:42;;;;;;;6.82;3.67;;;;;;;9.28;65.88;98575.84;5042069;28;20059;-79
2021/10/10 10:17:08;;;;;;;20.85;3.58;;;;;;;9.22;66.69;98568.72;5038325;28;20022;-83
2021/10/10 10:19:34;;;;;;;7.03;3.47;;;;;;;9.32;66.02;98576.13;5041336;28;20092;-82
2021/10/10 10:22:00;;;;;;;7.40;3.38;;;;;;;9.50;65.24;98576.41;5051931;28;20582;-82
2021/10/10 10:24:28;;;;;;;5.63;2.85;;;;;;;9.39;65.47;98571.22;5049930;28;20386;-82
2021/10/10 10:26:54;;;;;;;6.53;3.17;;;;;;;9.54;64.82;98573.94;5045455;28;20025;-79
2021/10/10 10:29:24;;;;;;;8.68;3.67;;;;;;;9.44;64.74;98566.56;5045871;28;20036;-81
2021/10/10 10:31:51;;;;;;;7.05;2.67;;;;;;;9.54;64.77;98566.56;5039184;28;20020;-80
2021/10/10 10:34:28;;;;;;;7.60;2.92;;;;;;;9.43;64.38;98551.25;5038767;28;20088;-76
2021/10/10 10:37:08;;;;;;;9.55;3.88;;;;;;;9.42;65.44;98576.13;5040340;28;20042;-83
2021/10/10 10:39:38;;;;;;;5.43;3.10;;;;;;;9.44;64.67;98560.28;5045105;28;20041;-85
2021/10/10 10:42:07;;;;;;;5.35;3.00;;;;;;;9.32;65.03;98576.13;5031311;28;20025;-77
2021/10/10 10:44:44;;;;;;;5.00;3.10;;;;;;;9.40;65.10;98576.38;5030282;28;20029;-79
2021/10/10 10:47:15;;;;;;;5.20;3.10;;;;;;;9.42;64.82;98571.50;5033583;28;20474;-81
2021/10/10 10:52:42;;;;;;;8.50;3.10;;;;;;;9.66;64.23;98571.75;5037888;28;20145;-79
2021/10/10 10:55:19;;;;;;;5.00;2.70;;;;;;;9.58;64.33;98555.94;5031246;28;20025;-79
2021/10/10 10:57:54;;;;;;;5.28;2.40;;;;;;;9.70;63.86;98564.66;5028000;28;20163;-85
2021/10/10 11:00:25;;;;;;;3.90;2.35;;;;;;;9.53;64.01;98562.19;5028268;28;20029;-78
2021/10/10 11:03:02;;;;;;;4.35;2.45;;;;;;;9.60;63.90;98562.75;5030980;28;20025;-83
2021/10/10 11:05:31;;;;;;;5.45;2.65;;;;;;;9.49;64.50;98552.09;5031415;28;20026;-81
2021/10/10 11:08:26;;;;;;;4.55;2.45;;;;;;;9.47;64.93;98557.00;5038822;28;20025;-79
2021/10/10 11:11:00;;;;;;;3.97;2.22;;;;;;;9.63;64.56;98558.63;5033461;28;20118;-76
2021/10/10 11:13:29;;;;;;;4.20;2.23;;;;;;;9.61;64.21;98553.47;5036621;28;20017;-72
2021/10/10 11:16:19;;;;;;;4.55;2.28;;;;;;;9.63;64.37;98556.72;5034943;28;20028;-78
2021/10/10 11:19:11;;;;;;;10.60;3.38;;;;;;;9.49;64.83;98572.00;5036246;28;20025;-77
2021/10/10 11:21:39;;;;;;;21.15;4.90;;;;;;;9.51;64.80;98564.38;5030016;28;20041;-77
2021/10/10 11:24:19;;;;;;;10.23;4.13;;;;;;;9.47;65.45;98570.66;5038979;28;20108;-77
2021/10/10 11:26:47;;;;;;;4.93;2.45;;;;;;;9.52;65.16;98559.75;5038865;28;20029;-76
2021/10/10 11:29:15;;;;;;;6.65;2.80;;;;;;;9.36;65.17;98549.91;5029665;28;20121;-76
2021/10/10 11:31:42;;;;;;;5.03;2.33;;;;;;;9.26;65.16;98563.56;5019993;28;20047;-76
2021/10/10 11:34:13;;;;;;;6.45;3.05;;;;;;;9.25;65.54;98549.09;5037947;28;20513;-78
2021/10/10 11:36:50;;;;;;;4.90;2.70;;;;;;;9.28;65.95;98553.16;5036857;28;20033;-76